Home   Weather   Australia   Sydney   Past weeks
Flag for Australia

Past Weather in Sydney, New South Wales, Australia — Yesterday and Last 2 Weeks

Currently: 64 °F. Clear. (Weather station: Sydney Airport, Australia). See more current weather

Past Weather in Sydney — Graph

°F

Sydney Temperature Yesterday

Maximum temperature yesterday: 64 °F (at 1:30 pm)
Minimum temperature yesterday: 43 °F (at 6:00 am)
Average temperature yesterday: 53 °F

High & Low Weather Summary for the Past Weeks

 TemperatureHumidityPressure
High77 °F (Jul 28, 1:00 pm)88% (Jul 24, 1:30 am)30.15 "Hg (Jul 24, 1:30 am)
Low43 °F (Jul 22, 3:30 am)22% (Jul 29, 3:00 pm)29.36 "Hg (Jul 16, 6:06 pm)
Average56 °F53%29.84 "Hg
* Reported Jul 16 5:09 pm — Jul 31 5:30 pm, Sydney. Weather by CustomWeather, © 2021

Note: Actual official high and low records may vary slightly from our data, if they occured in-between our weather recording intervals... More about our weather records

Sydney Weather History for the Previous 24 Hours

Scroll right to see more
 ConditionsComfort  
Time TempWeatherWind HumidityBarometerVisibility
5:30 pm
Sat, Jul 31
64 °FClear.16 mph64%29.77 "Hg10 mi
5:00 pm66 °FSunny.18 mph56%29.77 "Hg10 mi
4:30 pm66 °FSunny.17 mph56%29.77 "Hg10 mi
4:00 pm68 °FSunny.16 mph49%29.77 "Hg10 mi
3:30 pm68 °FSunny.16 mph46%29.80 "Hg10 mi
3:00 pm70 °FSunny.16 mph40%29.80 "Hg10 mi
2:30 pm72 °FSunny.18 mph31%29.80 "Hg10 mi
2:00 pm72 °FSunny.15 mph31%29.80 "Hg10 mi
1:30 pm70 °FSunny.12 mph33%29.83 "Hg10 mi
1:00 pm68 °FSunny.13 mph33%29.86 "Hg10 mi
12:30 pm68 °FSunny.13 mph33%29.86 "Hg10 mi
12:00 pm66 °FSunny.10 mph35%29.89 "Hg10 mi
11:30 am64 °FSunny.10 mph34%29.92 "Hg10 mi
11:00 am64 °FPassing clouds.5 mph37%29.92 "HgN/A
10:00 am64 °FPassing clouds.6 mph34%29.95 "HgN/A
9:30 am63 °FSunny.6 mph39%29.95 "Hg10 mi
9:00 am55 °FSunny.6 mph51%29.95 "Hg10 mi
8:30 am54 °FSunny.6 mph54%29.98 "Hg10 mi
8:00 am50 °FSunny.6 mph62%29.98 "Hg10 mi
7:30 am48 °FSunny.6 mph66%29.98 "Hg10 mi
7:00 am48 °FSunny.7 mph66%29.98 "Hg10 mi
6:30 am48 °FClear.7 mph62%29.98 "Hg10 mi
6:00 am48 °FClear.8 mph66%29.98 "Hg10 mi
5:30 am46 °FClear.7 mph66%29.98 "Hg10 mi
5:00 am46 °FClear.8 mph62%29.98 "Hg10 mi
4:30 am48 °FClear.9 mph62%29.98 "Hg10 mi
4:00 am46 °FClear.9 mph66%30.01 "Hg10 mi
3:30 am46 °FClear.7 mph71%29.98 "Hg10 mi
3:00 am46 °FClear.8 mph71%30.01 "Hg10 mi
2:30 am46 °FClear.8 mph71%30.01 "Hg10 mi
2:00 am50 °FClear.6 mph62%30.04 "Hg10 mi
1:30 am50 °FClear.9 mph62%30.04 "Hg10 mi
1:00 am52 °FClear.6 mph54%30.01 "Hg10 mi
12:30 am54 °FClear.5 mph51%30.01 "Hg10 mi
12:00 am54 °FClear.8 mph51%30.04 "Hg10 mi
11:30 pm
Fri, Jul 30
54 °FClear.9 mph51%30.04 "Hg10 mi
10:30 pm55 °FClear.10 mph55%30.07 "Hg10 mi
9:30 pm55 °FClear.8 mph59%30.07 "Hg10 mi
7:30 pm55 °FClear.6 mph63%30.04 "Hg10 mi
6:00 pm59 °FClear.5 mph59%30.04 "Hg10 mi
Weather by CustomWeather, © 2021

See weather overview